createdAt,value
2022-08-14T00:00:40.528Z,23.09
2022-08-14T00:04:01.543Z,23.07
2022-08-14T00:07:42.552Z,23.10
2022-08-14T00:11:07.523Z,23.12
2022-08-14T00:14:28.530Z,23.12
2022-08-14T00:17:53.368Z,23.10
2022-08-14T00:21:14.576Z,23.10
2022-08-14T00:24:37.728Z,23.07
2022-08-14T00:27:58.530Z,23.06
2022-08-14T00:31:35.387Z,23.03
2022-08-14T00:35:03.528Z,23.01
2022-08-14T00:38:24.606Z,22.93
2022-08-14T00:41:48.536Z,22.87
2022-08-14T00:45:09.598Z,22.85
2022-08-14T00:48:34.510Z,22.81
2022-08-14T00:51:58.099Z,22.72
2022-08-14T00:55:21.613Z,22.72
2022-08-14T00:58:45.100Z,22.68
2022-08-14T01:02:14.523Z,22.61
2022-08-14T01:05:41.808Z,22.57
2022-08-14T01:09:14.538Z,22.57
2022-08-14T01:12:40.711Z,22.52
2022-08-14T01:16:06.536Z,22.50
2022-08-14T01:19:47.999Z,22.45
2022-08-14T01:23:16.326Z,22.38
2022-08-14T01:26:40.603Z,22.33
2022-08-14T01:30:10.571Z,22.26
2022-08-14T01:34:00.432Z,21.95
2022-08-14T01:37:19.597Z,21.66
2022-08-14T01:40:41.917Z,21.45
2022-08-14T01:44:32.826Z,21.26
2022-08-14T01:47:50.557Z,21.06
2022-08-14T01:51:19.541Z,20.95
2022-08-14T01:54:41.642Z,20.91
2022-08-14T01:58:20.275Z,20.90
2022-08-14T02:01:51.542Z,20.89
2022-08-14T02:05:20.584Z,20.86
2022-08-14T02:08:53.300Z,20.85
2022-08-14T02:12:19.576Z,20.80
2022-08-14T02:15:43.584Z,20.75
2022-08-14T02:19:05.578Z,20.71
2022-08-14T02:22:28.631Z,20.77
2022-08-14T02:25:54.719Z,21.05
2022-08-14T02:29:59.191Z,21.29
2022-08-14T02:33:18.553Z,21.50
2022-08-14T02:37:04.591Z,21.68
2022-08-14T02:40:31.911Z,21.86
2022-08-14T02:43:54.659Z,21.97
2022-08-14T02:47:21.584Z,21.90
2022-08-14T02:50:44.619Z,21.75
2022-08-14T02:54:13.272Z,21.65
2022-08-14T02:57:42.568Z,21.59
2022-08-14T03:01:03.616Z,21.54
2022-08-14T03:04:28.582Z,21.51
2022-08-14T03:07:49.666Z,21.52
2022-08-14T03:11:18.576Z,21.56
2022-08-14T03:14:43.629Z,21.68
2022-08-14T03:18:05.585Z,21.70
2022-08-14T03:21:24.619Z,21.72
2022-08-14T03:24:46.585Z,21.77
2022-08-14T03:28:33.312Z,21.90
2022-08-14T03:31:58.578Z,22.12
2022-08-14T03:35:20.677Z,22.28
2022-08-14T03:39:11.617Z,22.44
2022-08-14T03:42:35.766Z,22.54
2022-08-14T03:45:57.573Z,22.71
2022-08-14T03:49:24.361Z,22.83
2022-08-14T03:52:55.606Z,22.90
2022-08-14T03:56:21.364Z,22.99
2022-08-14T03:59:42.594Z,22.98
2022-08-14T04:03:03.607Z,22.92
2022-08-14T04:06:28.348Z,22.89
2022-08-14T04:09:52.806Z,22.89
2022-08-14T04:13:17.600Z,22.92
2022-08-14T04:16:38.624Z,23.01
2022-08-14T04:20:00.689Z,23.05
2022-08-14T04:23:29.419Z,23.10
2022-08-14T04:26:55.691Z,23.14
2022-08-14T04:30:25.028Z,23.17
2022-08-14T04:33:54.607Z,23.20
2022-08-14T04:37:34.601Z,23.26
2022-08-14T04:41:14.658Z,23.28
2022-08-14T04:44:37.231Z,23.40
2022-08-14T04:48:39.879Z,23.53
2022-08-14T04:51:59.625Z,23.74
2022-08-14T04:55:16.826Z,23.90
2022-08-14T04:58:34.610Z,24.09
2022-08-14T05:01:57.382Z,24.16
2022-08-14T05:05:18.655Z,24.19
2022-08-14T05:08:56.888Z,24.18
2022-08-14T05:13:24.526Z,24.21
2022-08-14T05:16:01.696Z,24.28
2022-08-14T05:19:27.296Z,24.37
2022-08-14T05:22:55.612Z,24.49
2022-08-14T05:26:21.667Z,24.61
2022-08-14T05:29:42.707Z,24.67
2022-08-14T05:33:03.683Z,24.70
2022-08-14T05:36:27.035Z,24.72
2022-08-14T05:39:48.752Z,24.78
2022-08-14T05:43:11.666Z,24.91
2022-08-14T05:46:34.634Z,24.97
2022-08-14T05:49:58.624Z,24.98
2022-08-14T05:53:19.638Z,25.09
2022-08-14T05:56:42.635Z,25.17
2022-08-14T06:00:04.670Z,25.29
2022-08-14T06:03:28.708Z,25.36
2022-08-14T06:06:49.645Z,25.41
2022-08-14T06:10:10.685Z,25.50
2022-08-14T06:13:44.410Z,25.63
2022-08-14T06:17:06.624Z,25.77
2022-08-14T06:20:28.750Z,25.97
2022-08-14T06:23:50.642Z,26.06
2022-08-14T06:27:12.612Z,25.95
2022-08-14T06:30:46.170Z,25.91
2022-08-14T06:35:03.350Z,25.83
2022-08-14T06:37:59.630Z,25.88
2022-08-14T06:41:52.666Z,25.97
2022-08-14T06:45:07.667Z,26.05
2022-08-14T06:48:33.652Z,26.11
2022-08-14T06:51:56.637Z,26.08
2022-08-14T06:55:28.220Z,26.12
2022-08-14T06:58:50.640Z,26.22
2022-08-14T07:02:29.693Z,26.30
2022-08-14T07:05:58.665Z,26.41
2022-08-14T07:09:22.566Z,26.55
2022-08-14T07:13:00.761Z,26.63
2022-08-14T07:16:22.680Z,26.72
2022-08-14T07:19:48.652Z,26.78
2022-08-14T07:23:09.292Z,26.82
2022-08-14T07:26:31.651Z,26.91
2022-08-14T07:29:52.644Z,27.04
2022-08-14T07:33:13.636Z,27.17
2022-08-14T07:36:35.674Z,27.32
2022-08-14T07:39:56.710Z,27.43
2022-08-14T07:43:18.653Z,27.53
2022-08-14T07:46:41.637Z,27.65
2022-08-14T07:50:34.715Z,27.78
2022-08-14T07:54:03.496Z,27.91
2022-08-14T07:57:35.704Z,27.97
2022-08-14T08:00:57.908Z,27.99
2022-08-14T08:04:24.565Z,28.02
2022-08-14T08:07:45.688Z,28.07
2022-08-14T08:11:14.696Z,28.30
2022-08-14T08:14:56.317Z,28.41
2022-08-14T08:18:29.251Z,28.53
2022-08-14T08:21:53.755Z,28.67
2022-08-14T08:25:17.798Z,28.80
2022-08-14T08:28:41.522Z,28.93
2022-08-14T08:32:05.969Z,29.00
2022-08-14T08:35:46.249Z,29.10
2022-08-14T08:39:16.919Z,29.21
2022-08-14T08:42:44.888Z,29.21
2022-08-14T08:46:08.664Z,29.00
2022-08-14T08:49:59.621Z,29.09
2022-08-14T08:53:16.679Z,29.47
2022-08-14T08:56:56.079Z,29.82
2022-08-14T09:00:26.703Z,30.03
2022-08-14T09:03:47.766Z,30.18
2022-08-14T09:07:11.292Z,30.15
2022-08-14T09:10:31.689Z,30.26
2022-08-14T09:13:53.697Z,30.40
2022-08-14T09:17:14.666Z,30.64
2022-08-14T09:20:36.941Z,30.67
2022-08-14T09:24:26.935Z,30.57
2022-08-14T09:27:42.716Z,30.61
2022-08-14T09:31:17.834Z,30.84
2022-08-14T09:34:59.741Z,31.13
2022-08-14T09:39:22.829Z,31.27
2022-08-14T09:43:22.501Z,31.25
2022-08-14T09:46:43.672Z,31.17
2022-08-14T09:50:10.678Z,31.17
2022-08-14T09:54:19.355Z,31.28
2022-08-14T09:57:41.691Z,31.81
2022-08-14T10:01:06.697Z,31.94
2022-08-14T10:04:46.202Z,32.07
2022-08-14T10:08:14.974Z,32.27
2022-08-14T10:12:18.867Z,32.48
2022-08-14T10:16:01.950Z,32.87
2022-08-14T10:25:18.395Z,33.82
2022-08-14T10:28:39.506Z,33.84
2022-08-14T10:32:17.593Z,33.40
2022-08-14T10:35:57.777Z,33.46
2022-08-14T10:39:32.864Z,33.80
2022-08-14T10:42:56.324Z,34.09
2022-08-14T10:47:39.808Z,34.23
2022-08-14T10:50:15.017Z,34.08
2022-08-14T10:53:42.764Z,33.99
2022-08-14T10:57:03.840Z,34.10
2022-08-14T11:00:35.479Z,34.07
2022-08-14T11:03:57.836Z,33.60
2022-08-14T11:07:28.773Z,33.33
2022-08-14T11:10:55.791Z,33.38
2022-08-14T11:14:22.819Z,33.44
2022-08-14T11:17:47.787Z,33.57
2022-08-14T11:21:09.676Z,33.73
2022-08-14T11:24:55.357Z,33.72
2022-08-14T11:28:19.816Z,33.52
2022-08-14T11:32:01.752Z,33.50
2022-08-14T11:35:44.089Z,33.43
2022-08-14T11:39:10.713Z,33.42
2022-08-14T11:42:56.922Z,33.33
2022-08-14T11:46:30.727Z,33.26
2022-08-14T11:50:02.733Z,33.07
2022-08-14T11:53:41.898Z,32.87
2022-08-14T11:57:02.717Z,32.89
2022-08-14T12:00:31.623Z,32.84
2022-08-14T12:03:57.204Z,33.06
2022-08-14T12:07:20.693Z,33.13
2022-08-14T12:10:42.881Z,33.22
2022-08-14T12:14:03.749Z,33.50
2022-08-14T12:17:26.725Z,33.33
2022-08-14T12:20:52.695Z,33.42
2022-08-14T12:24:35.875Z,33.52
2022-08-14T12:27:59.279Z,33.87
2022-08-14T12:31:36.324Z,34.00
2022-08-14T12:35:07.737Z,34.33
2022-08-14T12:38:31.744Z,34.80
2022-08-14T12:41:53.818Z,35.07
2022-08-14T12:45:21.716Z,35.96
2022-08-14T12:48:43.736Z,37.03
2022-08-14T12:52:17.225Z,37.24
2022-08-14T12:56:17.894Z,37.09
2022-08-14T12:59:16.733Z,37.39
2022-08-14T13:02:38.821Z,37.74
2022-08-14T13:06:03.776Z,38.19
2022-08-14T13:09:26.765Z,37.90
2022-08-14T13:13:12.038Z,37.06
2022-08-14T13:16:38.031Z,36.27
2022-08-14T13:20:00.768Z,35.30
2022-08-14T13:23:32.272Z,34.52
2022-08-14T13:27:03.760Z,33.97
2022-08-14T13:30:26.761Z,33.70
2022-08-14T13:33:48.760Z,33.60
2022-08-14T13:37:14.738Z,33.42
2022-08-14T13:40:38.739Z,33.27
2022-08-14T13:44:03.787Z,33.66
2022-08-14T13:47:26.774Z,34.11
2022-08-14T13:50:49.744Z,34.10
2022-08-14T13:54:11.527Z,34.03
2022-08-14T13:57:33.850Z,34.02
2022-08-14T14:00:55.603Z,33.64
2022-08-14T14:04:18.855Z,34.24
2022-08-14T14:07:43.423Z,36.50
2022-08-14T14:11:05.775Z,38.43
2022-08-14T14:14:44.753Z,39.70
2022-08-14T14:18:34.096Z,40.50
2022-08-14T14:21:59.457Z,40.57
2022-08-14T14:29:33.527Z,39.31
2022-08-14T14:33:46.391Z,38.79
2022-08-14T14:37:11.884Z,37.81
2022-08-14T14:40:52.393Z,36.69
2022-08-14T14:44:24.394Z,35.49
2022-08-14T14:53:39.128Z,33.89
2022-08-14T14:57:16.752Z,33.44
2022-08-14T15:00:42.058Z,33.16
2022-08-14T15:04:20.270Z,32.68
2022-08-14T15:08:02.925Z,32.21
2022-08-14T16:00:37.916Z,30.34
2022-08-14T16:03:57.998Z,30.13
2022-08-14T16:07:28.198Z,29.99
2022-08-14T16:10:54.964Z,29.96
2022-08-14T16:14:21.207Z,29.95
2022-08-14T16:18:10.168Z,29.85
2022-08-14T16:22:57.673Z,29.68
2022-08-14T16:27:05.228Z,29.51
2022-08-14T16:30:36.103Z,29.38
2022-08-14T16:34:43.997Z,29.26
2022-08-14T16:57:43.080Z,28.74
2022-08-14T17:01:22.438Z,28.68
2022-08-14T17:04:46.061Z,28.63
2022-08-14T17:08:32.131Z,28.55
2022-08-14T17:12:07.645Z,28.50
2022-08-14T17:15:29.086Z,28.51
2022-08-14T17:19:00.646Z,28.42
2022-08-14T17:22:26.911Z,28.40
2022-08-14T17:25:50.897Z,28.37
2022-08-14T17:29:44.602Z,28.33
2022-08-14T17:33:27.231Z,28.30
2022-08-14T17:36:51.030Z,28.24
2022-08-14T17:40:24.103Z,28.05
2022-08-14T17:43:41.344Z,27.86
2022-08-14T17:47:09.052Z,27.60
2022-08-14T17:50:55.109Z,27.48
2022-08-14T17:54:14.009Z,27.40
2022-08-14T17:57:46.577Z,27.41
2022-08-14T18:01:12.111Z,27.37
2022-08-14T18:04:33.041Z,27.32
2022-08-14T18:08:33.167Z,27.32
2022-08-14T18:11:46.318Z,27.31
2022-08-14T18:15:12.263Z,27.31
2022-08-14T18:18:38.033Z,27.23
2022-08-14T18:22:03.948Z,27.20
2022-08-14T18:25:25.019Z,27.18
2022-08-14T18:28:51.484Z,27.07
2022-08-14T18:32:14.018Z,26.93
2022-08-14T18:35:59.749Z,26.88
2022-08-14T18:40:01.295Z,26.82
2022-08-14T18:43:24.040Z,26.71
2022-08-14T18:47:25.549Z,26.64
2022-08-14T18:50:47.036Z,26.64
2022-08-14T18:54:14.018Z,26.60
2022-08-14T18:57:40.608Z,26.55
2022-08-14T19:01:04.512Z,26.52
2022-08-14T19:04:51.039Z,26.46
2022-08-14T19:08:39.050Z,26.39
2022-08-14T19:12:01.093Z,26.21
2022-08-14T19:15:25.705Z,26.01
2022-08-14T19:18:48.079Z,25.83
2022-08-14T19:22:12.662Z,25.69
2022-08-14T19:26:02.046Z,25.52
2022-08-14T19:29:47.854Z,25.41
2022-08-14T19:33:13.024Z,25.29
2022-08-14T19:37:04.494Z,25.19
2022-08-14T19:40:20.398Z,25.13
2022-08-14T19:43:56.454Z,25.05
2022-08-14T19:47:18.079Z,25.01
2022-08-14T19:50:44.383Z,24.98
2022-08-14T19:54:15.190Z,24.94
2022-08-14T19:57:57.866Z,24.94
2022-08-14T20:01:20.215Z,24.88
2022-08-14T20:04:55.697Z,24.85
2022-08-14T20:11:01.057Z,24.83
2022-08-14T20:12:04.635Z,24.79
2022-08-14T20:15:27.070Z,24.75
2022-08-14T20:19:08.058Z,24.70
2022-08-14T20:22:36.274Z,24.68
2022-08-14T20:26:01.048Z,24.66
2022-08-14T20:29:15.183Z,24.67
2022-08-14T20:32:36.072Z,24.67
2022-08-14T20:36:00.060Z,24.67
2022-08-14T20:39:23.081Z,24.66
2022-08-14T20:43:06.072Z,24.65
2022-08-14T20:46:31.384Z,24.62
2022-08-14T20:49:52.064Z,24.58
2022-08-14T20:53:15.130Z,24.55
2022-08-14T20:56:36.104Z,24.50
2022-08-14T21:00:02.106Z,24.46
2022-08-14T21:03:57.154Z,24.44
2022-08-14T21:07:36.201Z,24.37
2022-08-14T21:11:00.083Z,24.32
2022-08-14T21:14:28.301Z,24.21
2022-08-14T21:17:43.454Z,24.10
2022-08-14T21:21:04.674Z,24.00
2022-08-14T21:24:47.657Z,23.86
2022-08-14T21:28:20.943Z,23.77
2022-08-14T21:31:55.377Z,23.70
2022-08-14T21:35:20.089Z,23.63
2022-08-14T21:38:45.195Z,23.54
2022-08-14T21:42:07.121Z,23.42
2022-08-14T21:45:35.671Z,23.34
2022-08-14T21:48:57.092Z,23.28
2022-08-14T21:52:51.959Z,23.21
2022-08-14T21:56:05.142Z,23.12
2022-08-14T21:59:39.087Z,23.05
2022-08-14T22:03:00.094Z,22.97
2022-08-14T22:06:21.110Z,22.91
2022-08-14T22:09:54.956Z,22.89
2022-08-14T22:13:16.840Z,22.94
2022-08-14T22:16:59.703Z,22.94
2022-08-14T22:20:22.111Z,22.99
2022-08-14T22:23:43.143Z,22.99
2022-08-14T22:27:04.138Z,23.00
2022-08-14T22:30:30.143Z,23.03
2022-08-14T22:33:52.116Z,23.04
2022-08-14T22:37:19.128Z,23.01
2022-08-14T22:41:14.884Z,23.01
2022-08-14T22:44:29.222Z,23.15
2022-08-14T22:47:50.120Z,23.29
2022-08-14T22:51:17.839Z,23.44
2022-08-14T22:54:52.041Z,23.53
2022-08-14T22:58:17.165Z,23.60
2022-08-14T23:01:56.468Z,23.72
2022-08-14T23:05:38.987Z,23.76
2022-08-14T23:09:34.571Z,23.84
2022-08-14T23:12:43.143Z,23.96
2022-08-14T23:16:04.150Z,24.04
2022-08-14T23:19:25.175Z,24.11
2022-08-14T23:22:56.138Z,24.12
2022-08-14T23:26:48.071Z,24.14
2022-08-14T23:29:58.129Z,24.13
2022-08-14T23:33:19.118Z,24.12
2022-08-14T23:36:53.053Z,24.08
2022-08-14T23:40:26.478Z,24.07
2022-08-14T23:43:50.160Z,24.08
2022-08-14T23:47:25.667Z,24.03
2022-08-14T23:50:50.132Z,24.01
2022-08-14T23:54:48.646Z,23.95
2022-08-14T23:57:58.539Z,23.89
